• Join FlightAware (Why Join?)
  • Login
  • US Flag 
07:04AM EDT


 

Airport Tracker/Info


-or-


 

Live Flight TrackerFlight Track Log ✈ UAL326 ✈ 06-May-2013 ✈ KIAD - KSEA

Flight Track Log - Related Links

Times and Time Zones

All times are in EDT time to prevent confusion due to time zone crossing. See the UAL326 flight status page for this flight to view local times or setup timezone preferences in your user account.

Time Position Orientation Groundspeed Altitude Reporting Facility
EDT Latitude Longitude Course Direction KTS MPH feet Rate Location/Type
05:22PM 38.9333 -77.5333 282° West 206 237 2,100  Level Potomac TRACON
05:23PM 38.9333 -77.6167 270° West 260 299 3,900 1,920 Climbing Potomac TRACON
05:24PM 38.9078 -77.6803 243° Southwest 275 316 5,400 2,820 Climbing Washington Center
05:25PM 38.8892 -77.7892 258° West 288 331 8,800 2,880 Climbing Washington Center
05:27PM 39.0017 -77.9047 321° Northwest 253 291 14,100 2,400 Climbing Washington Center
05:27PM 38.9594 -78.4229 282° West  Level FlightAware Approximate
05:28PM 39.0692 -77.9736 322° Northwest 285 328 16,000  Level Washington Center
05:29PM 39.0400 -78.0769 250° West 269 310 17,000 1,200 Climbing Washington Center
05:31PM 38.9639 -78.3147 248° West 325 374 19,700 1,500 Climbing Washington Center
05:33PM 38.9733 -78.6142 272° West 411 473 23,000 1,560 Climbing Washington Center
05:34PM 38.9811 -78.9147 272° West 455 524 25,800 1,380 Climbing Indianapolis Center
05:35PM 38.9850 -79.0722 272° West 455 524 27,100 1,260 Climbing Indianapolis Center
05:37PM 38.9908 -79.2586 272° West 457 526 28,600 1,260 Climbing Washington Center
05:38PM 38.9942 -79.4244 272° West 467 537 29,800 2,640 Climbing Washington Center
05:39PM 38.9989 -79.6008 272° West 478 550 34,000 1,080 Climbing Washington Center
05:40PM 39.0014 -79.7692 271° West 483 556 32,000 -720 Descending Washington Center
05:42PM 39.0072 -80.1275 271° West 478 550 32,000 360 Level Washington Center
05:44PM 39.0000 -80.4636 270° West  Level FlightAware Approximate
05:45PM 39.0517 -80.6528 270° West 498 573 34,000  Level Indianapolis Center
05:47PM 39.2772 -80.8622 324° Northwest 511 588 34,000  Level Indianapolis Center
05:48PM 39.3653 -81.0442 302° West 505 581 34,000  Level Indianapolis Center
05:49PM 39.4181 -81.2114 292° West 504 580 34,000  Level Indianapolis Center
05:50PM 39.4711 -81.3750 293° West 497 572 34,000  Level Indianapolis Center
05:51PM 39.5239 -81.5394 293° West 497 572 34,000  Level Indianapolis Center
05:53PM 39.6289 -81.8708 292° West 500 575 34,000  Level Indianapolis Center
05:55PM 39.6880 -82.1176 287° West  Level FlightAware Approximate
05:56PM 39.7922 -82.3933 293° West 504 580 34,000  Level Indianapolis Center
05:57PM 39.8531 -82.5922 292° West 505 581 33,900  Descending Indianapolis Center
05:58PM 39.9053 -82.7636 292° West 507 583 34,000  Climbing Indianapolis Center
06:00PM 39.9620 -82.9797 289° West  Level FlightAware Approximate
06:00PM 40.0078 -83.1000 289° West 496 571 33,900  Level Indianapolis Center
06:01PM 40.0578 -83.2653 292° West 492 566 33,900 240 Level Indianapolis Center
06:02PM 40.0161 -83.2239 293° West  Level FlightAware Approximate
06:02PM 40.1147 -83.4569 291° West 488 562 34,500  Level Indianapolis Center
06:03PM 40.1461 -83.6258 284° West 481 554 34,900 120 Climbing Indianapolis Center
06:05PM 40.2008 -83.9656 282° West 478 550 35,000 360 Climbing Indianapolis Center
06:07PM 40.2475 -84.3075 280° West 475 547 36,600 720 Climbing Indianapolis Center
06:10PM 40.3642 -84.6539 294° West 477 549 38,000 300 Climbing Indianapolis Center
06:12PM 40.4778 -84.9864 294° West 484 557 38,000  Level Indianapolis Center
06:13PM 40.5328 -85.1481 294° West 487 560 38,000  Level Indianapolis Center
06:14PM 40.5872 -85.3089 294° West 486 559 38,000  Level Indianapolis Center
06:15PM 40.6422 -85.4697 294° West 485 558 38,000  Level Indianapolis Center
06:16PM 40.6956 -85.6308 294° West 483 556 38,000  Level Indianapolis Center
06:17PM 40.7603 -85.8236 294° West 482 555 38,000  Level Indianapolis Center
06:18PM 40.8244 -86.0197 293° West 483 556 38,000  Level Chicago Center
06:20PM 40.9101 -86.2880 293° West  Level FlightAware Approximate
06:20PM 40.9308 -86.3425 293° West 477 549 38,000  Level Chicago Center
06:22PM 41.0347 -86.6675 293° West 476 548 38,000  Level Chicago Center
06:23PM 41.0964 -86.8556 294° West 477 549 38,000  Level Chicago Center
06:24PM 41.1486 -87.0178 293° West 480 552 38,000  Level Chicago Center
06:25PM 41.1986 -87.1806 292° West 479 551 38,000  Level Chicago Center
06:26PM 41.2489 -87.3433 292° West 479 551 38,000  Level Chicago Center
06:27PM 41.2986 -87.5058 292° West 478 550 38,000  Level Chicago Center
06:28PM 41.3600 -87.7006 293° West 479 551 38,000  Level Chicago Center
06:30PM 41.4128 -87.8866 291° West  Level FlightAware Approximate
06:32PM 41.5628 -88.3667 295° West 473 544 38,000  Level Chicago Center
06:34PM 41.6233 -88.5217 298° West 475 547 38,000  Level Chicago Center
06:35PM 41.6766 -88.6777 296° West  Level FlightAware Approximate
06:36PM 41.7500 -88.8642 296° West 470 541 38,000  Level Chicago Center
06:37PM 41.7826 -88.9745 296° West  Level FlightAware Approximate
06:37PM 41.8061 -89.0211 296° West 469 540 38,000  Level Chicago Center
06:38PM 41.8375 -89.1295 295° West  Level FlightAware Approximate
06:38PM 41.8619 -89.1764 296° West 467 537 38,000  Level Chicago Center
06:39PM 41.9194 -89.3328 296° West 468 539 38,000  Level Chicago Center
06:40PM 41.9750 -89.4889 296° West 463 533 38,000  Level Chicago Center
06:41PM 42.0289 -89.6439 295° West 462 532 38,000  Level Chicago Center
06:42PM 42.0947 -89.8269 296° West 472 543 38,000  Level Chicago Center
06:43PM 42.1558 -89.9969 296° West 470 541 38,000  Level Chicago Center
06:45PM 42.2653 -90.3108 295° West 465 535 38,000  Level Chicago Center
06:46PM 42.3194 -90.4700 295° West 468 539 38,000  Level Chicago Center
06:48PM 42.4511 -90.8089 298° West 469 540 38,000  Level Chicago Center
06:49PM 42.5244 -90.9528 305° West 467 537 38,000  Level Chicago Center
06:51PM 42.6517 -91.2125 304° West 467 537 38,000  Level Minneapolis Center
06:53PM 42.8119 -91.5339 304° West 468 539 38,000  Level Minneapolis Center
06:54PM 42.8844 -91.6836 303° West 470 541 38,000  Level Minneapolis Center
06:56PM 43.0317 -91.9917 303° West 469 540 38,000  Level Minneapolis Center
06:57PM 43.1036 -92.1394 304° West 471 542 38,000  Level Minneapolis Center
06:58PM 43.1753 -92.2872 304° West 473 544 38,000  Level Minneapolis Center
06:59PM 43.2733 -92.4989 303° West 475 547 38,000  Level Minneapolis Center
07:01PM 43.4147 -92.7978 303° West 473 544 38,000  Level Minneapolis Center
07:02PM 43.4842 -92.9481 303° West 470 541 38,000  Level Minneapolis Center
07:05PM 43.6342 -93.2728 303° West 474 545 38,000  Level Chicago Center
07:06PM 43.7053 -93.4233 303° West 469 540 38,000  Level Minneapolis Center
07:07PM 43.7753 -93.5756 303° West 469 540 38,000  Level Minneapolis Center
07:08PM 43.8447 -93.7286 302° West 469 540 38,000  Level Minneapolis Center
07:09PM 43.9297 -93.9133 303° West 473 544 38,000  Level Minneapolis Center
07:10PM 44.0006 -94.0703 302° West 474 545 38,000  Level Minneapolis Center
07:11PM 44.0839 -94.2581 302° West 477 549 38,000  Level Minneapolis Center
07:12PM 44.1364 -94.4247 294° West 474 545 38,000  Level Minneapolis Center
07:14PM 44.1903 -94.6803 286° West  Level FlightAware Approximate
07:15PM 44.2756 -94.9661 290° West 465 535 38,000  Level Minneapolis Center
07:17PM 44.3074 -95.2113 280° West  Level FlightAware Approximate
07:18PM 44.4028 -95.4719 280° West 461 531 38,000  Level Minneapolis Center
07:19PM 44.4458 -95.6397 290° West 462 532 38,000  Level Minneapolis Center
07:20PM 44.4961 -95.8436 289° West 466 536 38,000  Level Minneapolis Center
07:21PM 44.4645 -95.8679 290° West  Level FlightAware Approximate
07:21PM 44.5378 -96.0133 289° West 467 537 38,000  Level Minneapolis Center
07:23PM 44.5838 -96.2211 287° West  Level FlightAware Approximate
07:23PM 44.6208 -96.3528 287° West 467 537 38,000  Level Minneapolis Center
07:24PM 44.6617 -96.5261 288° West 472 543 38,000  Level Minneapolis Center
07:25PM 44.7031 -96.6989 289° West 471 542 38,000  Level Minneapolis Center
07:26PM 44.7528 -96.9081 289° West 473 544 38,000  Level Minneapolis Center
07:27PM 44.7864 -97.0486 289° West 474 545 38,000  Level Minneapolis Center
07:28PM 44.8369 -97.2594 289° West 476 548 38,000  Level Minneapolis Center
07:30PM 44.8769 -97.4364 288° West 476 548 38,000  Level Minneapolis Center
07:31PM 44.9181 -97.6144 288° West 478 550 38,000  Level Minneapolis Center
07:32PM 44.9606 -97.7925 289° West 480 552 38,000  Level Minneapolis Center
07:33PM 45.0083 -98.0072 288° West 480 552 38,000  Level Minneapolis Center
07:35PM 45.0928 -98.3864 288° West 481 554 38,000  Level Minneapolis Center
07:36PM 45.1317 -98.5656 287° West 479 551 38,000  Level Minneapolis Center
07:37PM 45.1786 -98.7792 287° West 476 548 38,000  Level Minneapolis Center
07:38PM 45.2172 -98.9578 287° West 476 548 38,000  Level Minneapolis Center
07:39PM 45.2561 -99.1342 287° West 473 544 38,000  Level Minneapolis Center
07:40PM 45.2869 -99.2756 287° West 472 543 38,000  Level Minneapolis Center
07:41PM 45.3311 -99.4867 287° West 470 541 38,000  Level Minneapolis Center
07:42PM 45.3611 -99.6275 287° West 469 540 38,000  Level Minneapolis Center
07:44PM 45.4539 -100.0619 287° West 470 541 38,000 -60 Level Salt Lake Center
07:45PM 45.4839 -100.2261 285° West 468 539 37,900  Descending Minneapolis Center
07:47PM 45.5561 -100.5797 286° West 467 537 38,000  Climbing Minneapolis Center
07:50PM 45.5871 -100.7781 283° West  Level FlightAware Approximate
07:50PM 45.6711 -101.1625 283° West 467 537 38,000  Level Salt Lake Center
07:51PM 45.7019 -101.3261 285° West 468 539 38,000  Level Minneapolis Center
07:53PM 45.7389 -101.5323 284° West  Level FlightAware Approximate
07:53PM 45.7722 -101.6839 284° West 468 539 38,000  Level Minneapolis Center
07:55PM 45.8397 -102.0483 285° West 473 544 38,000  Level Minneapolis Center
07:57PM 45.8697 -102.2324 283° West  Level FlightAware Approximate
07:59PM 45.9439 -102.6389 284° West 478 550 38,000  Level Minneapolis Center
08:01PM 46.0122 -103.0278 284° West 479 551 37,900  Descending Minneapolis Center
08:02PM 46.0436 -103.2147 284° West 479 551 38,000  Climbing Minneapolis Center
08:03PM 46.0742 -103.3997 283° West 478 550 38,000 -60 Level Salt Lake Center
08:04PM 46.0706 -103.4832 284° West  Level FlightAware Approximate
08:04PM 46.1061 -103.5881 284° West 480 552 37,900  Level Salt Lake Center
08:06PM 46.1767 -104.0014 284° West 482 555 38,000  Climbing Salt Lake Center
08:07PM 46.2069 -104.1917 283° West 486 559 38,000  Level Salt Lake Center
08:08PM 46.2375 -104.3800 283° West 483 556 38,000  Level Salt Lake Center
08:09PM 46.2647 -104.5622 282° West 481 554 38,000  Level Salt Lake Center
08:10PM 46.2986 -104.7758 283° West 485 558 38,000  Level Salt Lake Center
08:12PM 46.3416 -105.0612 282° West  Level FlightAware Approximate
08:14PM 46.4150 -105.5389 282° West 489 563 38,000  Level Salt Lake Center
08:15PM 46.4475 -105.7550 282° West 491 565 38,000  Level Salt Lake Center
08:16PM 46.4756 -105.9436 282° West 494 568 38,000  Level Salt Lake Center
08:17PM 46.5078 -106.1631 282° West 497 572 38,000  Level Salt Lake Center
08:18PM 46.5358 -106.3483 282° West 496 571 38,000  Level Salt Lake Center
08:19PM 46.5229 -106.3283 282° West  Level FlightAware Approximate
08:20PM 46.5690 -106.6001 281° West  Level FlightAware Approximate
08:20PM 46.5928 -106.7531 281° West 494 568 38,000  Level Salt Lake Center
08:22PM 46.6478 -107.1567 281° West 493 567 38,000  Level Salt Lake Center
08:23PM 46.6736 -107.3433 281° West 492 566 38,000  Level Salt Lake Center
08:24PM 46.7019 -107.5614 281° West 491 565 38,000  Level Salt Lake Center
08:25PM 46.7264 -107.7475 281° West 491 565 38,000  Level Salt Lake Center
08:26PM 46.7494 -107.9356 280° West 491 565 38,000  Level Salt Lake Center
08:28PM 46.7712 -108.1533 278° West  Level FlightAware Approximate
08:28PM 46.8008 -108.3422 278° West 493 567 38,000  Level Salt Lake Center
08:30PM 46.8160 -108.5520 276° West  Level FlightAware Approximate
08:30PM 46.8494 -108.7492 276° West 492 566 38,000  Level Salt Lake Center
08:31PM 46.8758 -108.9681 280° West 491 565 38,000  Level Salt Lake Center
08:32PM 46.8983 -109.1617 280° West 492 566 38,000  Level Salt Lake Center
08:33PM 46.9197 -109.3600 279° West 495 570 38,000  Level Salt Lake Center
08:35PM 46.9433 -109.5547 280° West 490 564 38,000  Level Salt Lake Center
08:36PM 46.9621 -109.7393 279° West  Level FlightAware Approximate
08:37PM 46.9858 -109.9494 279° West 491 565 38,000  Level Salt Lake Center
08:38PM 47.0069 -110.1486 279° West 494 568 38,000  Level Salt Lake Center
08:39PM 47.0272 -110.3478 279° West 495 570 38,000  Level Salt Lake Center
08:40PM 47.0478 -110.5450 279° West 491 565 38,000 -60 Level Salt Lake Center
08:41PM 47.0686 -110.7447 279° West 494 568 37,900 -60 Descending Salt Lake Center
08:42PM 47.0919 -110.9833 278° West 492 566 37,900  Level Salt Lake Center
08:43PM 47.1117 -111.1833 278° West 494 568 38,000  Climbing Salt Lake Center
08:44PM 47.1314 -111.3831 278° West 493 567 38,000  Level Salt Lake Center
08:45PM 47.1494 -111.5839 278° West 493 567 38,000  Level Salt Lake Center
08:46PM 47.1678 -111.7844 278° West 493 567 38,000 -60 Level Salt Lake Center
08:47PM 47.1850 -111.9825 277° West 490 564 37,900 -60 Descending Salt Lake Center
08:48PM 47.2039 -112.1806 278° West 488 562 37,900  Level Salt Lake Center
08:49PM 47.2208 -112.3800 277° West 489 563 38,000  Climbing Salt Lake Center
08:51PM 47.2536 -112.7767 277° West 489 563 38,000  Level Salt Lake Center
08:52PM 47.2736 -113.0172 277° West 491 565 38,000  Level Salt Lake Center
08:53PM 47.2897 -113.2181 277° West 494 568 38,000  Level Salt Lake Center
08:54PM 47.3056 -113.4164 277° West 490 564 38,000 -60 Level Salt Lake Center
08:55PM 47.3214 -113.6158 277° West 490 564 37,900  Descending Salt Lake Center
08:56PM 47.3369 -113.8181 277° West 498 573 38,000  Climbing Salt Lake Center
08:57PM 47.3514 -114.0178 276° West 492 566 37,900  Descending Salt Lake Center
08:58PM 47.3650 -114.2181 276° West 490 564 38,000  Climbing Salt Lake Center
08:59PM 47.3794 -114.4183 276° West 489 563 38,000 -60 Level Salt Lake Center
09:00PM 47.3928 -114.6178 276° West 488 562 37,900 -60 Descending Salt Lake Center
09:01PM 47.4036 -114.7786 276° West 488 562 37,900  Level Seattle Center
09:02PM 47.4172 -114.9817 276° West 493 567 37,900  Level Seattle Center
09:03PM 47.4303 -115.1814 276° West 488 562 38,000  Climbing Seattle Center
09:04PM 47.4417 -115.3817 275° West 488 562 37,900  Descending Seattle Center
09:05PM 47.4531 -115.5811 275° West 489 563 38,000  Climbing Seattle Center
09:06PM 47.4661 -115.7989 275° West 489 563 37,900  Descending Seattle Center
09:08PM 47.4900 -116.1947 275° West 487 560 38,000  Climbing Seattle Center
09:10PM 47.5022 -116.4140 275° West  Level FlightAware Approximate
09:10PM 47.5128 -116.5906 275° West 484 557 37,900  Level Seattle Center
09:12PM 47.5339 -116.9844 275° West 483 556 38,000  Climbing Seattle Center
09:13PM 47.5456 -117.2039 275° West 489 563 38,000  Level Seattle Center
09:14PM 47.5547 -117.4039 274° West 485 558 38,000 -60 Level Seattle Center
09:15PM 47.5650 -117.6047 274° West 489 563 37,900  Descending Seattle Center
09:16PM 47.5825 -117.8028 278° West 486 559 38,000  Climbing Seattle Center
09:17PM 47.6017 -118.0019 278° West 489 563 38,000 -60 Level Seattle Center
09:18PM 47.6200 -118.1994 278° West 488 562 37,900  Descending Seattle Center
09:19PM 47.6386 -118.4000 278° West 491 565 38,000  Climbing Seattle Center
09:20PM 47.6558 -118.5992 277° West 490 564 37,900 -60 Descending Seattle Center
09:21PM 47.6725 -118.7983 277° West 489 563 37,900  Level Seattle Center
09:22PM 47.6886 -118.9961 277° West 485 558 37,900  Level Seattle Center
09:23PM 47.7064 -119.1950 278° West 487 560 38,000  Climbing Seattle Center
09:24PM 47.7217 -119.3944 277° West 489 563 37,900  Descending Seattle Center
09:25PM 47.7383 -119.5933 277° West 488 562 38,000  Climbing Seattle Center
09:26PM 47.7542 -119.7928 277° West 487 560 37,900 -360 Descending Seattle Center
09:27PM 47.7692 -119.9906 277° West 486 559 37,300 -960 Descending Seattle Center
09:28PM 47.7850 -120.2303 276° West 486 559 36,000 -1,920 Descending Seattle Center
09:30PM 47.7973 -120.4786 278° West  Level FlightAware Approximate
09:30PM 47.8136 -120.6356 278° West 494 568 31,600  Level Seattle Center
09:31PM 47.8297 -120.8447 277° West 497 572 30,300 -3,120 Descending Seattle Center
09:33PM 47.8377 -121.0849 281° West  Level FlightAware Approximate
09:33PM 47.8581 -121.2344 281° West 480 552 22,300  Level Seattle Center
09:34PM 47.8683 -121.3872 276° West 466 536 20,200 -2,580 Descending Seattle Center
09:34PM 47.8708 -121.4219 276° West 472 543 19,700 -2,160 Descending Seattle Center
09:35PM 47.8781 -121.5539 275° West 443 510 18,300 -1,680 Descending Seattle Center
09:35PM 47.8811 -121.6000 276° West 452 520 18,000 -660 Descending Seattle Center
09:36PM 47.8722 -121.7033 263° West 384 442 17,700 -900 Descending Seattle Center
09:36PM 47.8544 -121.7469 239° Southwest 383 441 17,100 -1,920 Descending Seattle Center
09:37PM 47.8047 -121.8142 222° Southwest 352 405 15,800 -1,980 Descending Seattle Center
09:37PM 47.7708 -121.8600 222° Southwest 359 413 15,100 -1,620 Descending Seattle Center
09:38PM 47.7222 -121.9269 223° Southwest 350 403 14,000 -1,680 Descending Seattle Center
09:38PM 47.6992 -121.9564 221° Southwest 348 400 13,400 -1,800 Descending Seattle Center
09:39PM 47.6511 -122.0228 223° Southwest 343 395 12,200 -1,920 Descending Seattle Center
09:39PM 47.6233 -122.0583 221° Southwest 342 394 11,500 -1,500 Descending Seattle Center
09:40PM 47.5558 -122.1492 222° Southwest 332 382 10,200 -1,080 Descending Seattle Center
09:41PM 47.5161 -122.1739 203° Southwest 308 354 9,800 -900 Descending Seattle Center
09:41PM 47.4778 -122.1789 185° South 293 337 9,300 -1,200 Descending Seattle Center
09:42PM 47.4344 -122.1764 178° South 278 320 8,600 -1,320 Descending Seattle Center
09:42PM 47.3992 -122.1775 181° South 281 323 8,000 -1,320 Descending Seattle Center
09:43PM 47.3633 -122.1764 179° South 276 318 7,400 -1,500 Descending Seattle Center
09:43PM 47.3222 -122.1758 179° South 276 318 6,500 -1,380 Descending Seattle Center
09:44PM 47.2875 -122.1758 180° South 274 315 6,000 -1,020 Descending Seattle Center
09:44PM 47.2528 -122.1861 191° South 253 291 5,500 -1,080 Descending Seattle Center
09:45PM 47.2433 -122.2297 252° West 214 246 4,800 -1,320 Descending Seattle Center
09:45PM 47.2606 -122.2586 311° West 208 239 4,200 -1,380 Descending Seattle Center
09:46PM 47.2836 -122.2825 325° Northwest 187 215 3,400 -1,500 Descending Seattle Center